sensor_id;sensor_type;location;lat;lon;timestamp;temperature;humidity
14995;DHT22;7593;49.006;8.372;2023-04-03T00:00:31;5.30;99.90
14995;DHT22;7593;49.006;8.372;2023-04-03T00:02:58;5.30;99.90
14995;DHT22;7593;49.006;8.372;2023-04-03T00:05:25;5.30;99.90
14995;DHT22;7593;49.006;8.372;2023-04-03T00:07:52;5.30;99.90
14995;DHT22;7593;49.006;8.372;2023-04-03T00:10:20;5.30;99.90
14995;DHT22;7593;49.006;8.372;2023-04-03T00:12:47;5.30;99.90
14995;DHT22;7593;49.006;8.372;2023-04-03T00:15:14;5.30;99.90
14995;DHT22;7593;49.006;8.372;2023-04-03T00:17:41;5.30;99.90
14995;DHT22;7593;49.006;8.372;2023-04-03T00:20:09;5.30;99.90
14995;DHT22;7593;49.006;8.372;2023-04-03T00:22:35;5.30;99.90
14995;DHT22;7593;49.006;8.372;2023-04-03T00:25:03;5.30;99.90
14995;DHT22;7593;49.006;8.372;2023-04-03T00:27:31;5.30;99.90
14995;DHT22;7593;49.006;8.372;2023-04-03T00:29:58;5.30;99.90
14995;DHT22;7593;49.006;8.372;2023-04-03T00:32:24;5.30;99.90
14995;DHT22;7593;49.006;8.372;2023-04-03T00:34:51;5.30;99.90
14995;DHT22;7593;49.006;8.372;2023-04-03T00:37:21;5.30;99.90
14995;DHT22;7593;49.006;8.372;2023-04-03T00:39:48;5.30;99.90
14995;DHT22;7593;49.006;8.372;2023-04-03T00:42:15;5.30;99.90
14995;DHT22;7593;49.006;8.372;2023-04-03T00:47:46;5.30;99.90
14995;DHT22;7593;49.006;8.372;2023-04-03T00:50:13;5.40;99.90
14995;DHT22;7593;49.006;8.372;2023-04-03T00:52:40;5.30;99.90
14995;DHT22;7593;49.006;8.372;2023-04-03T00:55:08;5.30;99.90
14995;DHT22;7593;49.006;8.372;2023-04-03T00:57:36;5.30;99.90
14995;DHT22;7593;49.006;8.372;2023-04-03T01:00:08;5.30;99.90
14995;DHT22;7593;49.006;8.372;2023-04-03T01:02:35;5.30;99.90
14995;DHT22;7593;49.006;8.372;2023-04-03T01:05:05;5.30;99.90
14995;DHT22;7593;49.006;8.372;2023-04-03T01:07:32;5.30;99.90
14995;DHT22;7593;49.006;8.372;2023-04-03T01:10:04;5.30;99.90
14995;DHT22;7593;49.006;8.372;2023-04-03T01:12:33;5.30;99.90
14995;DHT22;7593;49.006;8.372;2023-04-03T01:15:06;5.30;99.90
14995;DHT22;7593;49.006;8.372;2023-04-03T01:17:35;5.30;99.90
14995;DHT22;7593;49.006;8.372;2023-04-03T01:20:23;5.20;99.90
14995;DHT22;7593;49.006;8.372;2023-04-03T01:23:01;5.20;99.90
14995;DHT22;7593;49.006;8.372;2023-04-03T01:25:29;5.20;99.90
14995;DHT22;7593;49.006;8.372;2023-04-03T01:27:56;5.20;99.90
14995;DHT22;7593;49.006;8.372;2023-04-03T01:30:26;5.20;99.90
14995;DHT22;7593;49.006;8.372;2023-04-03T01:32:56;5.20;99.90
14995;DHT22;7593;49.006;8.372;2023-04-03T01:35:23;5.10;99.90
14995;DHT22;7593;49.006;8.372;2023-04-03T01:37:49;5.10;99.90
14995;DHT22;7593;49.006;8.372;2023-04-03T01:40:17;5.10;99.90
14995;DHT22;7593;49.006;8.372;2023-04-03T01:42:43;5.10;99.90
14995;DHT22;7593;49.006;8.372;2023-04-03T01:45:11;5.10;99.90
14995;DHT22;7593;49.006;8.372;2023-04-03T01:47:37;5.10;99.90
14995;DHT22;7593;49.006;8.372;2023-04-03T01:50:06;5.00;99.90
14995;DHT22;7593;49.006;8.372;2023-04-03T01:52:33;5.00;99.90
14995;DHT22;7593;49.006;8.372;2023-04-03T01:54:59;4.90;99.90
14995;DHT22;7593;49.006;8.372;2023-04-03T01:57:26;4.80;99.90
14995;DHT22;7593;49.006;8.372;2023-04-03T01:59:53;4.80;99.90
14995;DHT22;7593;49.006;8.372;2023-04-03T02:02:20;4.80;99.90
14995;DHT22;7593;49.006;8.372;2023-04-03T02:04:47;4.80;99.90
14995;DHT22;7593;49.006;8.372;2023-04-03T02:07:15;4.70;99.90
14995;DHT22;7593;49.006;8.372;2023-04-03T02:09:41;4.70;99.90
14995;DHT22;7593;49.006;8.372;2023-04-03T02:12:08;4.70;99.90
14995;DHT22;7593;49.006;8.372;2023-04-03T02:14:35;4.60;99.90
14995;DHT22;7593;49.006;8.372;2023-04-03T02:17:02;4.60;99.90
14995;DHT22;7593;49.006;8.372;2023-04-03T02:19:33;4.60;99.90
14995;DHT22;7593;49.006;8.372;2023-04-03T02:22:00;4.50;99.90
14995;DHT22;7593;49.006;8.372;2023-04-03T02:24:29;4.50;99.90
14995;DHT22;7593;49.006;8.372;2023-04-03T02:26:55;4.50;99.90
14995;DHT22;7593;49.006;8.372;2023-04-03T02:29:22;4.40;99.90
14995;DHT22;7593;49.006;8.372;2023-04-03T02:31:50;4.40;99.90
14995;DHT22;7593;49.006;8.372;2023-04-03T02:34:16;4.40;99.90
14995;DHT22;7593;49.006;8.372;2023-04-03T02:36:43;4.30;99.90
14995;DHT22;7593;49.006;8.372;2023-04-03T02:39:10;4.30;99.90
14995;DHT22;7593;49.006;8.372;2023-04-03T02:41:39;4.30;99.90
14995;DHT22;7593;49.006;8.372;2023-04-03T02:44:06;4.30;99.90
14995;DHT22;7593;49.006;8.372;2023-04-03T02:46:33;4.20;99.90
14995;DHT22;7593;49.006;8.372;2023-04-03T02:49:00;4.20;99.90
14995;DHT22;7593;49.006;8.372;2023-04-03T02:51:27;4.10;99.90
14995;DHT22;7593;49.006;8.372;2023-04-03T02:53:54;4.10;99.90
14995;DHT22;7593;49.006;8.372;2023-04-03T02:56:20;4.10;99.90
14995;DHT22;7593;49.006;8.372;2023-04-03T02:58:48;4.00;99.90
14995;DHT22;7593;49.006;8.372;2023-04-03T03:01:15;4.00;99.90
14995;DHT22;7593;49.006;8.372;2023-04-03T03:03:42;3.90;99.90
14995;DHT22;7593;49.006;8.372;2023-04-03T03:06:10;3.90;99.90
14995;DHT22;7593;49.006;8.372;2023-04-03T03:08:38;3.90;99.90
14995;DHT22;7593;49.006;8.372;2023-04-03T03:11:05;3.90;99.90
14995;DHT22;7593;49.006;8.372;2023-04-03T03:13:32;3.80;99.90
14995;DHT22;7593;49.006;8.372;2023-04-03T03:16:00;3.80;99.90
14995;DHT22;7593;49.006;8.372;2023-04-03T03:18:27;3.80;99.90
14995;DHT22;7593;49.006;8.372;2023-04-03T03:20:56;3.70;99.90
14995;DHT22;7593;49.006;8.372;2023-04-03T03:23:24;3.70;99.90
14995;DHT22;7593;49.006;8.372;2023-04-03T03:25:54;3.60;99.90
14995;DHT22;7593;49.006;8.372;2023-04-03T03:28:21;3.60;99.90
14995;DHT22;7593;49.006;8.372;2023-04-03T03:30:48;3.60;99.90
14995;DHT22;7593;49.006;8.372;2023-04-03T03:33:16;3.60;99.90
14995;DHT22;7593;49.006;8.372;2023-04-03T03:35:43;3.60;99.90
14995;DHT22;7593;49.006;8.372;2023-04-03T03:38:10;3.60;99.90
14995;DHT22;7593;49.006;8.372;2023-04-03T03:40:40;3.60;99.90
14995;DHT22;7593;49.006;8.372;2023-04-03T03:43:06;3.50;99.90
14995;DHT22;7593;49.006;8.372;2023-04-03T03:45:33;3.60;99.90
14995;DHT22;7593;49.006;8.372;2023-04-03T03:48:00;3.50;99.90
14995;DHT22;7593;49.006;8.372;2023-04-03T03:50:28;3.50;99.90
14995;DHT22;7593;49.006;8.372;2023-04-03T03:52:55;3.50;99.90
14995;DHT22;7593;49.006;8.372;2023-04-03T03:55:23;3.60;99.90
14995;DHT22;7593;49.006;8.372;2023-04-03T03:57:49;3.60;99.90
14995;DHT22;7593;49.006;8.372;2023-04-03T04:00:17;3.60;99.90
14995;DHT22;7593;49.006;8.372;2023-04-03T04:02:44;3.60;99.90
14995;DHT22;7593;49.006;8.372;2023-04-03T04:05:11;3.60;99.90
14995;DHT22;7593;49.006;8.372;2023-04-03T04:07:39;3.60;99.90
14995;DHT22;7593;49.006;8.372;2023-04-03T04:10:06;3.60;99.90
14995;DHT22;7593;49.006;8.372;2023-04-03T04:12:33;3.60;99.90
14995;DHT22;7593;49.006;8.372;2023-04-03T04:15:01;3.60;99.90
14995;DHT22;7593;49.006;8.372;2023-04-03T04:17:28;3.60;99.90
14995;DHT22;7593;49.006;8.372;2023-04-03T04:19:54;3.60;99.90
14995;DHT22;7593;49.006;8.372;2023-04-03T04:22:21;3.60;99.90
14995;DHT22;7593;49.006;8.372;2023-04-03T04:24:49;3.60;99.90
14995;DHT22;7593;49.006;8.372;2023-04-03T04:27:16;3.60;99.90
14995;DHT22;7593;49.006;8.372;2023-04-03T04:29:43;3.60;99.90
14995;DHT22;7593;49.006;8.372;2023-04-03T04:32:10;3.70;99.90
14995;DHT22;7593;49.006;8.372;2023-04-03T04:34:37;3.70;99.90
14995;DHT22;7593;49.006;8.372;2023-04-03T04:37:03;3.70;99.90
14995;DHT22;7593;49.006;8.372;2023-04-03T04:39:30;3.70;99.90
14995;DHT22;7593;49.006;8.372;2023-04-03T04:41:58;3.80;99.90
14995;DHT22;7593;49.006;8.372;2023-04-03T04:44:25;3.80;99.90
14995;DHT22;7593;49.006;8.372;2023-04-03T04:46:52;3.80;99.90
14995;DHT22;7593;49.006;8.372;2023-04-03T04:49:19;3.80;99.90
14995;DHT22;7593;49.006;8.372;2023-04-03T04:51:45;3.70;99.90
14995;DHT22;7593;49.006;8.372;2023-04-03T04:54:12;3.80;99.90
14995;DHT22;7593;49.006;8.372;2023-04-03T04:56:39;3.70;99.90
14995;DHT22;7593;49.006;8.372;2023-04-03T04:59:07;3.70;99.90
14995;DHT22;7593;49.006;8.372;2023-04-03T05:01:34;3.70;99.90
14995;DHT22;7593;49.006;8.372;2023-04-03T05:04:01;3.70;99.90
14995;DHT22;7593;49.006;8.372;2023-04-03T05:06:28;3.70;99.90
14995;DHT22;7593;49.006;8.372;2023-04-03T05:08:55;3.70;99.90
14995;DHT22;7593;49.006;8.372;2023-04-03T05:11:22;3.60;99.90
14995;DHT22;7593;49.006;8.372;2023-04-03T05:13:49;3.60;99.90
14995;DHT22;7593;49.006;8.372;2023-04-03T05:16:17;3.60;99.90
14995;DHT22;7593;49.006;8.372;2023-04-03T05:18:44;3.60;99.90
14995;DHT22;7593;49.006;8.372;2023-04-03T05:21:11;3.60;99.90
14995;DHT22;7593;49.006;8.372;2023-04-03T05:23:37;3.50;99.90
14995;DHT22;7593;49.006;8.372;2023-04-03T05:26:04;3.50;99.90
14995;DHT22;7593;49.006;8.372;2023-04-03T05:28:31;3.50;99.90
14995;DHT22;7593;49.006;8.372;2023-04-03T05:30:58;3.50;99.90
14995;DHT22;7593;49.006;8.372;2023-04-03T05:33:27;3.50;99.90
14995;DHT22;7593;49.006;8.372;2023-04-03T05:35:54;3.40;99.90
14995;DHT22;7593;49.006;8.372;2023-04-03T05:38:21;3.40;99.90
14995;DHT22;7593;49.006;8.372;2023-04-03T05:40:48;3.40;99.90
14995;DHT22;7593;49.006;8.372;2023-04-03T05:43:15;3.40;99.90
14995;DHT22;7593;49.006;8.372;2023-04-03T05:45:42;3.30;99.90
14995;DHT22;7593;49.006;8.372;2023-04-03T05:48:09;3.40;99.90
14995;DHT22;7593;49.006;8.372;2023-04-03T05:50:37;3.40;99.90
14995;DHT22;7593;49.006;8.372;2023-04-03T05:53:08;3.40;99.90
14995;DHT22;7593;49.006;8.372;2023-04-03T05:55:38;3.50;99.90
14995;DHT22;7593;49.006;8.372;2023-04-03T05:58:05;3.50;99.90
14995;DHT22;7593;49.006;8.372;2023-04-03T06:00:32;3.50;99.90
14995;DHT22;7593;49.006;8.372;2023-04-03T06:02:59;3.60;99.90
14995;DHT22;7593;49.006;8.372;2023-04-03T06:05:26;3.60;99.90
14995;DHT22;7593;49.006;8.372;2023-04-03T06:07:54;3.60;99.90
14995;DHT22;7593;49.006;8.372;2023-04-03T06:10:23;3.70;99.90
14995;DHT22;7593;49.006;8.372;2023-04-03T06:12:49;3.70;99.90
14995;DHT22;7593;49.006;8.372;2023-04-03T06:15:16;3.80;99.90
14995;DHT22;7593;49.006;8.372;2023-04-03T06:17:43;3.70;99.90
14995;DHT22;7593;49.006;8.372;2023-04-03T06:20:11;3.80;99.90
14995;DHT22;7593;49.006;8.372;2023-04-03T06:22:39;3.80;99.90
14995;DHT22;7593;49.006;8.372;2023-04-03T06:25:09;3.80;99.90
14995;DHT22;7593;49.006;8.372;2023-04-03T06:27:36;3.90;99.90
14995;DHT22;7593;49.006;8.372;2023-04-03T06:30:04;3.90;99.90
14995;DHT22;7593;49.006;8.372;2023-04-03T06:32:32;4.00;99.90
14995;DHT22;7593;49.006;8.372;2023-04-03T06:34:59;4.20;99.90
14995;DHT22;7593;49.006;8.372;2023-04-03T06:37:26;4.30;99.90
14995;DHT22;7593;49.006;8.372;2023-04-03T06:39:55;4.40;99.90
14995;DHT22;7593;49.006;8.372;2023-04-03T06:42:23;4.50;99.90
14995;DHT22;7593;49.006;8.372;2023-04-03T06:44:50;4.60;99.90
14995;DHT22;7593;49.006;8.372;2023-04-03T06:47:17;4.70;99.90
14995;DHT22;7593;49.006;8.372;2023-04-03T06:49:45;5.00;99.90
14995;DHT22;7593;49.006;8.372;2023-04-03T06:52:12;5.40;99.90
14995;DHT22;7593;49.006;8.372;2023-04-03T06:54:39;5.90;99.90
14995;DHT22;7593;49.006;8.372;2023-04-03T06:57:06;6.40;99.90
14995;DHT22;7593;49.006;8.372;2023-04-03T06:59:34;6.70;99.90
14995;DHT22;7593;49.006;8.372;2023-04-03T07:02:02;6.90;99.90
14995;DHT22;7593;49.006;8.372;2023-04-03T07:04:29;7.10;99.90
14995;DHT22;7593;49.006;8.372;2023-04-03T07:06:56;7.30;99.90
14995;DHT22;7593;49.006;8.372;2023-04-03T07:09:22;7.50;99.90
14995;DHT22;7593;49.006;8.372;2023-04-03T07:11:50;7.40;99.90
14995;DHT22;7593;49.006;8.372;2023-04-03T07:14:16;7.10;99.90
14995;DHT22;7593;49.006;8.372;2023-04-03T07:16:45;6.80;99.90
14995;DHT22;7593;49.006;8.372;2023-04-03T07:19:12;6.50;99.90
14995;DHT22;7593;49.006;8.372;2023-04-03T07:21:38;6.20;99.90
14995;DHT22;7593;49.006;8.372;2023-04-03T07:24:06;6.10;99.90
14995;DHT22;7593;49.006;8.372;2023-04-03T07:26:32;6.10;99.90
14995;DHT22;7593;49.006;8.372;2023-04-03T07:28:59;6.10;99.90
14995;DHT22;7593;49.006;8.372;2023-04-03T07:31:26;6.20;99.90
14995;DHT22;7593;49.006;8.372;2023-04-03T07:33:54;6.50;99.90
14995;DHT22;7593;49.006;8.372;2023-04-03T07:36:22;6.90;99.90
14995;DHT22;7593;49.006;8.372;2023-04-03T07:38:49;7.20;99.90
14995;DHT22;7593;49.006;8.372;2023-04-03T07:41:18;7.50;99.90
14995;DHT22;7593;49.006;8.372;2023-04-03T07:43:47;7.80;99.90
14995;DHT22;7593;49.006;8.372;2023-04-03T07:46:17;8.00;99.90
14995;DHT22;7593;49.006;8.372;2023-04-03T07:48:46;8.10;99.90
14995;DHT22;7593;49.006;8.372;2023-04-03T07:51:15;8.10;99.90
14995;DHT22;7593;49.006;8.372;2023-04-03T07:53:42;8.10;99.90
14995;DHT22;7593;49.006;8.372;2023-04-03T07:56:09;8.20;99.90
14995;DHT22;7593;49.006;8.372;2023-04-03T07:58:36;8.30;99.90
14995;DHT22;7593;49.006;8.372;2023-04-03T08:01:04;8.30;99.90
14995;DHT22;7593;49.006;8.372;2023-04-03T08:03:31;8.40;99.90
14995;DHT22;7593;49.006;8.372;2023-04-03T08:06:02;8.60;99.90
14995;DHT22;7593;49.006;8.372;2023-04-03T08:08:31;8.40;99.90
14995;DHT22;7593;49.006;8.372;2023-04-03T08:10:59;8.40;99.90
14995;DHT22;7593;49.006;8.372;2023-04-03T08:13:28;8.60;99.90
14995;DHT22;7593;49.006;8.372;2023-04-03T08:15:55;8.60;99.90
14995;DHT22;7593;49.006;8.372;2023-04-03T08:18:23;8.70;99.90
14995;DHT22;7593;49.006;8.372;2023-04-03T08:20:51;8.80;99.90
14995;DHT22;7593;49.006;8.372;2023-04-03T08:23:18;9.00;99.90
14995;DHT22;7593;49.006;8.372;2023-04-03T08:25:46;8.70;99.90
14995;DHT22;7593;49.006;8.372;2023-04-03T08:28:13;8.50;99.90
14995;DHT22;7593;49.006;8.372;2023-04-03T08:30:41;8.70;99.90
14995;DHT22;7593;49.006;8.372;2023-04-03T08:33:09;9.10;99.90
14995;DHT22;7593;49.006;8.372;2023-04-03T08:35:38;9.10;99.90
14995;DHT22;7593;49.006;8.372;2023-04-03T08:38:06;9.30;99.90
14995;DHT22;7593;49.006;8.372;2023-04-03T08:40:32;9.40;99.90
14995;DHT22;7593;49.006;8.372;2023-04-03T08:43:19;9.00;99.90
14995;DHT22;7593;49.006;8.372;2023-04-03T08:45:51;8.60;99.90
14995;DHT22;7593;49.006;8.372;2023-04-03T08:48:20;8.70;99.90
14995;DHT22;7593;49.006;8.372;2023-04-03T08:50:51;8.80;99.90
14995;DHT22;7593;49.006;8.372;2023-04-03T08:53:22;9.00;99.90
14995;DHT22;7593;49.006;8.372;2023-04-03T08:55:53;9.30;99.90
14995;DHT22;7593;49.006;8.372;2023-04-03T08:58:24;9.70;99.90
14995;DHT22;7593;49.006;8.372;2023-04-03T09:00:57;10.10;99.90
14995;DHT22;7593;49.006;8.372;2023-04-03T09:03:24;10.40;99.90
14995;DHT22;7593;49.006;8.372;2023-04-03T09:05:53;10.60;99.90
14995;DHT22;7593;49.006;8.372;2023-04-03T09:08:23;10.50;99.90
14995;DHT22;7593;49.006;8.372;2023-04-03T09:10:59;10.40;99.90
14995;DHT22;7593;49.006;8.372;2023-04-03T09:13:35;10.60;99.90
14995;DHT22;7593;49.006;8.372;2023-04-03T09:16:15;11.00;99.90
14995;DHT22;7593;49.006;8.372;2023-04-03T09:18:48;11.40;99.90
14995;DHT22;7593;49.006;8.372;2023-04-03T09:21:21;11.20;99.90
14995;DHT22;7593;49.006;8.372;2023-04-03T09:23:52;10.70;99.90
14995;DHT22;7593;49.006;8.372;2023-04-03T09:26:24;10.40;99.90
14995;DHT22;7593;49.006;8.372;2023-04-03T09:28:55;10.50;99.90
14995;DHT22;7593;49.006;8.372;2023-04-03T09:31:24;10.50;99.90
14995;DHT22;7593;49.006;8.372;2023-04-03T09:33:54;10.50;99.90
14995;DHT22;7593;49.006;8.372;2023-04-03T09:36:41;10.20;99.90
14995;DHT22;7593;49.006;8.372;2023-04-03T09:39:11;10.40;99.90
14995;DHT22;7593;49.006;8.372;2023-04-03T09:41:39;10.50;99.90
14995;DHT22;7593;49.006;8.372;2023-04-03T09:44:21;10.80;99.90
14995;DHT22;7593;49.006;8.372;2023-04-03T09:46:48;10.80;99.90
14995;DHT22;7593;49.006;8.372;2023-04-03T09:49:17;10.80;99.90
14995;DHT22;7593;49.006;8.372;2023-04-03T09:51:45;11.10;99.90
14995;DHT22;7593;49.006;8.372;2023-04-03T09:54:35;11.10;99.90
14995;DHT22;7593;49.006;8.372;2023-04-03T09:57:08;11.10;99.90
14995;DHT22;7593;49.006;8.372;2023-04-03T09:59:46;11.30;99.90
14995;DHT22;7593;49.006;8.372;2023-04-03T10:02:30;11.40;99.60
14995;DHT22;7593;49.006;8.372;2023-04-03T10:04:58;11.10;99.50
14995;DHT22;7593;49.006;8.372;2023-04-03T10:07:31;11.10;99.80
14995;DHT22;7593;49.006;8.372;2023-04-03T10:10:00;11.50;99.60
14995;DHT22;7593;49.006;8.372;2023-04-03T10:12:28;11.70;99.30
14995;DHT22;7593;49.006;8.372;2023-04-03T10:14:58;11.70;98.30
14995;DHT22;7593;49.006;8.372;2023-04-03T10:17:45;11.70;99.00
14995;DHT22;7593;49.006;8.372;2023-04-03T10:20:27;11.90;97.50
14995;DHT22;7593;49.006;8.372;2023-04-03T10:23:09;11.80;95.30
14995;DHT22;7593;49.006;8.372;2023-04-03T10:25:45;11.30;96.00
14995;DHT22;7593;49.006;8.372;2023-04-03T10:28:21;10.80;96.60
14995;DHT22;7593;49.006;8.372;2023-04-03T10:31:00;10.50;96.40
14995;DHT22;7593;49.006;8.372;2023-04-03T10:33:41;10.30;95.90
14995;DHT22;7593;49.006;8.372;2023-04-03T10:36:19;10.30;96.00
14995;DHT22;7593;49.006;8.372;2023-04-03T10:38:53;10.20;95.20
14995;DHT22;7593;49.006;8.372;2023-04-03T10:41:25;9.90;95.00
14995;DHT22;7593;49.006;8.372;2023-04-03T10:44:03;9.70;95.30
14995;DHT22;7593;49.006;8.372;2023-04-03T10:46:37;9.90;95.40
14995;DHT22;7593;49.006;8.372;2023-04-03T10:49:18;10.40;94.00
14995;DHT22;7593;49.006;8.372;2023-04-03T10:51:55;10.70;93.00
14995;DHT22;7593;49.006;8.372;2023-04-03T10:54:30;10.60;92.90
14995;DHT22;7593;49.006;8.372;2023-04-03T10:57:02;10.30;92.90
14995;DHT22;7593;49.006;8.372;2023-04-03T10:59:32;10.20;93.30
14995;DHT22;7593;49.006;8.372;2023-04-03T11:02:05;10.00;92.80
14995;DHT22;7593;49.006;8.372;2023-04-03T11:04:36;10.00;93.90
14995;DHT22;7593;49.006;8.372;2023-04-03T11:07:09;10.10;93.60
14995;DHT22;7593;49.006;8.372;2023-04-03T11:09:39;10.10;94.30
14995;DHT22;7593;49.006;8.372;2023-04-03T11:12:11;10.30;94.70
14995;DHT22;7593;49.006;8.372;2023-04-03T11:14:39;10.60;94.60
14995;DHT22;7593;49.006;8.372;2023-04-03T11:17:21;10.50;94.60
14995;DHT22;7593;49.006;8.372;2023-04-03T11:19:57;10.20;93.70
14995;DHT22;7593;49.006;8.372;2023-04-03T11:22:28;10.10;94.30
14995;DHT22;7593;49.006;8.372;2023-04-03T11:25:02;10.10;93.90
14995;DHT22;7593;49.006;8.372;2023-04-03T11:27:33;10.20;93.50
14995;DHT22;7593;49.006;8.372;2023-04-03T11:30:02;10.00;93.30
14995;DHT22;7593;49.006;8.372;2023-04-03T11:32:48;9.80;94.20
14995;DHT22;7593;49.006;8.372;2023-04-03T11:35:19;9.90;94.40
14995;DHT22;7593;49.006;8.372;2023-04-03T11:37:49;10.10;93.50
14995;DHT22;7593;49.006;8.372;2023-04-03T11:40:24;10.20;93.80
14995;DHT22;7593;49.006;8.372;2023-04-03T11:42:53;10.30;93.60
14995;DHT22;7593;49.006;8.372;2023-04-03T11:45:49;10.30;93.90
14995;DHT22;7593;49.006;8.372;2023-04-03T11:48:43;10.20;93.90
14995;DHT22;7593;49.006;8.372;2023-04-03T11:51:39;10.00;94.50
14995;DHT22;7593;49.006;8.372;2023-04-03T11:54:45;9.90;95.20
14995;DHT22;7593;49.006;8.372;2023-04-03T11:57:44;10.00;94.70
14995;DHT22;7593;49.006;8.372;2023-04-03T12:07:02;9.90;95.50
14995;DHT22;7593;49.006;8.372;2023-04-03T12:09:37;9.50;96.10
14995;DHT22;7593;49.006;8.372;2023-04-03T12:12:35;9.40;96.00
14995;DHT22;7593;49.006;8.372;2023-04-03T12:15:23;9.10;96.10
14995;DHT22;7593;49.006;8.372;2023-04-03T12:17:51;9.10;96.50
14995;DHT22;7593;49.006;8.372;2023-04-03T12:20:55;9.40;95.50
14995;DHT22;7593;49.006;8.372;2023-04-03T12:23:31;10.10;94.00
14995;DHT22;7593;49.006;8.372;2023-04-03T12:26:08;10.30;94.00
14995;DHT22;7593;49.006;8.372;2023-04-03T12:28:48;10.20;94.80
14995;DHT22;7593;49.006;8.372;2023-04-03T12:31:16;10.20;95.60
14995;DHT22;7593;49.006;8.372;2023-04-03T12:34:02;10.20;95.50
14995;DHT22;7593;49.006;8.372;2023-04-03T12:36:38;9.90;95.80
14995;DHT22;7593;49.006;8.372;2023-04-03T12:42:21;10.00;95.70
14995;DHT22;7593;49.006;8.372;2023-04-03T12:44:56;10.10;95.60
14995;DHT22;7593;49.006;8.372;2023-04-03T12:47:28;10.20;95.60
14995;DHT22;7593;49.006;8.372;2023-04-03T12:49:59;10.10;95.40
14995;DHT22;7593;49.006;8.372;2023-04-03T12:52:35;10.10;95.70
14995;DHT22;7593;49.006;8.372;2023-04-03T12:55:14;9.80;95.30
14995;DHT22;7593;49.006;8.372;2023-04-03T12:57:41;9.50;95.60
14995;DHT22;7593;49.006;8.372;2023-04-03T13:00:31;9.40;95.90
14995;DHT22;7593;49.006;8.372;2023-04-03T13:02:59;9.30;96.00
14995;DHT22;7593;49.006;8.372;2023-04-03T13:05:27;9.40;95.60
14995;DHT22;7593;49.006;8.372;2023-04-03T13:07:59;9.30;95.80
14995;DHT22;7593;49.006;8.372;2023-04-03T13:10:30;9.20;95.80
14995;DHT22;7593;49.006;8.372;2023-04-03T13:12:58;9.10;96.00
14995;DHT22;7593;49.006;8.372;2023-04-03T13:15:41;9.00;96.30
14995;DHT22;7593;49.006;8.372;2023-04-03T13:18:22;9.10;96.80
14995;DHT22;7593;49.006;8.372;2023-04-03T13:20:49;9.20;96.70
14995;DHT22;7593;49.006;8.372;2023-04-03T13:23:17;9.30;96.90
14995;DHT22;7593;49.006;8.372;2023-04-03T13:25:50;9.10;96.00
14995;DHT22;7593;49.006;8.372;2023-04-03T13:28:20;9.10;96.10
14995;DHT22;7593;49.006;8.372;2023-04-03T13:30:58;9.10;96.40
14995;DHT22;7593;49.006;8.372;2023-04-03T13:33:29;9.10;96.50
14995;DHT22;7593;49.006;8.372;2023-04-03T13:36:00;9.10;96.00
14995;DHT22;7593;49.006;8.372;2023-04-03T13:38:29;9.00;96.30
14995;DHT22;7593;49.006;8.372;2023-04-03T13:41:03;9.10;96.80
14995;DHT22;7593;49.006;8.372;2023-04-03T13:43:31;9.30;97.20
14995;DHT22;7593;49.006;8.372;2023-04-03T13:46:05;9.50;96.30
14995;DHT22;7593;49.006;8.372;2023-04-03T13:48:41;9.80;94.90
14995;DHT22;7593;49.006;8.372;2023-04-03T13:51:19;9.80;93.90
14995;DHT22;7593;49.006;8.372;2023-04-03T13:53:49;10.00;93.40
14995;DHT22;7593;49.006;8.372;2023-04-03T13:56:24;10.50;92.90
14995;DHT22;7593;49.006;8.372;2023-04-03T13:58:58;10.40;91.70
14995;DHT22;7593;49.006;8.372;2023-04-03T14:01:34;10.50;92.30
14995;DHT22;7593;49.006;8.372;2023-04-03T14:04:12;10.60;91.60
14995;DHT22;7593;49.006;8.372;2023-04-03T14:06:39;10.50;91.70
14995;DHT22;7593;49.006;8.372;2023-04-03T14:09:06;10.30;92.10
14995;DHT22;7593;49.006;8.372;2023-04-03T14:11:34;10.10;92.30
14995;DHT22;7593;49.006;8.372;2023-04-03T14:14:05;9.90;93.10
14995;DHT22;7593;49.006;8.372;2023-04-03T14:16:36;9.80;93.50
14995;DHT22;7593;49.006;8.372;2023-04-03T14:19:03;9.70;93.90
14995;DHT22;7593;49.006;8.372;2023-04-03T14:21:30;9.60;93.70
14995;DHT22;7593;49.006;8.372;2023-04-03T14:23:57;9.60;95.40
14995;DHT22;7593;49.006;8.372;2023-04-03T14:26:24;9.50;96.20
14995;DHT22;7593;49.006;8.372;2023-04-03T14:28:54;9.50;96.50
14995;DHT22;7593;49.006;8.372;2023-04-03T14:31:22;9.50;96.50
14995;DHT22;7593;49.006;8.372;2023-04-03T14:33:49;9.40;96.60
14995;DHT22;7593;49.006;8.372;2023-04-03T14:36:19;9.50;96.70
14995;DHT22;7593;49.006;8.372;2023-04-03T14:38:47;9.40;96.70
14995;DHT22;7593;49.006;8.372;2023-04-03T14:41:16;9.40;97.00
14995;DHT22;7593;49.006;8.372;2023-04-03T14:43:44;9.60;97.10
14995;DHT22;7593;49.006;8.372;2023-04-03T14:46:15;9.70;97.20
14995;DHT22;7593;49.006;8.372;2023-04-03T14:48:43;10.00;95.80
14995;DHT22;7593;49.006;8.372;2023-04-03T14:51:11;10.40;95.50
14995;DHT22;7593;49.006;8.372;2023-04-03T14:53:38;10.50;94.30
14995;DHT22;7593;49.006;8.372;2023-04-03T14:56:11;10.30;94.00
14995;DHT22;7593;49.006;8.372;2023-04-03T14:58:38;9.90;94.60
14995;DHT22;7593;49.006;8.372;2023-04-03T15:01:05;9.60;95.30
14995;DHT22;7593;49.006;8.372;2023-04-03T15:03:33;9.60;95.10
14995;DHT22;7593;49.006;8.372;2023-04-03T15:06:00;9.40;95.10
14995;DHT22;7593;49.006;8.372;2023-04-03T15:08:28;9.40;95.30
14995;DHT22;7593;49.006;8.372;2023-04-03T15:10:56;9.40;94.40
14995;DHT22;7593;49.006;8.372;2023-04-03T15:13:24;9.30;94.50
14995;DHT22;7593;49.006;8.372;2023-04-03T15:15:55;9.40;94.40
14995;DHT22;7593;49.006;8.372;2023-04-03T15:18:22;9.40;94.90
14995;DHT22;7593;49.006;8.372;2023-04-03T15:20:53;9.90;93.50
14995;DHT22;7593;49.006;8.372;2023-04-03T15:23:23;10.10;92.70
14995;DHT22;7593;49.006;8.372;2023-04-03T15:25:52;10.10;92.50
14995;DHT22;7593;49.006;8.372;2023-04-03T15:28:23;9.90;93.20
14995;DHT22;7593;49.006;8.372;2023-04-03T15:30:51;9.50;93.20
14995;DHT22;7593;49.006;8.372;2023-04-03T15:33:17;9.20;93.50
14995;DHT22;7593;49.006;8.372;2023-04-03T15:35:44;9.00;94.20
14995;DHT22;7593;49.006;8.372;2023-04-03T15:38:12;9.00;94.40
14995;DHT22;7593;49.006;8.372;2023-04-03T15:40:39;8.90;94.20
14995;DHT22;7593;49.006;8.372;2023-04-03T15:43:06;9.10;93.80
14995;DHT22;7593;49.006;8.372;2023-04-03T15:45:35;9.60;93.40
14995;DHT22;7593;49.006;8.372;2023-04-03T15:48:03;10.20;92.50
14995;DHT22;7593;49.006;8.372;2023-04-03T15:50:31;10.70;91.60
14995;DHT22;7593;49.006;8.372;2023-04-03T15:52:58;10.60;91.80
14995;DHT22;7593;49.006;8.372;2023-04-03T15:55:29;10.40;91.30
14995;DHT22;7593;49.006;8.372;2023-04-03T15:57:56;10.20;91.30
14995;DHT22;7593;49.006;8.372;2023-04-03T16:00:24;9.90;92.20
14995;DHT22;7593;49.006;8.372;2023-04-03T16:02:55;9.70;92.60
14995;DHT22;7593;49.006;8.372;2023-04-03T16:05:24;9.60;92.60
14995;DHT22;7593;49.006;8.372;2023-04-03T16:07:51;9.90;92.80
14995;DHT22;7593;49.006;8.372;2023-04-03T16:10:19;10.30;92.10
14995;DHT22;7593;49.006;8.372;2023-04-03T16:12:47;10.80;91.80
14995;DHT22;7593;49.006;8.372;2023-04-03T16:15:14;11.40;91.00
14995;DHT22;7593;49.006;8.372;2023-04-03T16:17:41;11.60;90.00
14995;DHT22;7593;49.006;8.372;2023-04-03T16:20:09;11.40;88.80
14995;DHT22;7593;49.006;8.372;2023-04-03T16:22:37;11.40;89.90
14995;DHT22;7593;49.006;8.372;2023-04-03T16:25:05;11.10;88.50
14995;DHT22;7593;49.006;8.372;2023-04-03T16:27:32;11.00;88.70